Time;durP1;ratioP1;P1;durP2;ratioP2;P2;SDS_P1;SDS_P2;PMS_P1;PMS_P2;Temp;Humidity;BMP_temperature;BMP_pressure;BME280_temperature;BME280_humidity;BME280_pressure;Samples;Min_cycle;Max_cycle;Signal;HPM_P1;HPM_P2
2022/12/17 13:06:08;;;;;;;38.20;20.47;;;;;;;-2.31;93.64;99047.16;5115679;28;20711;-80
2022/12/17 13:08:34;;;;;;;36.97;19.60;;;;;;;-2.37;93.98;99049.78;5115223;28;20235;-80
2022/12/17 13:11:11;;;;;;;33.50;19.37;;;;;;;-2.42;94.52;99051.53;5115095;28;20228;-80
2022/12/17 13:13:54;;;;;;;39.43;22.17;;;;;;;-2.38;93.75;99048.91;5115287;28;20228;-80
2022/12/17 13:16:32;;;;;;;36.27;19.37;;;;;;;-2.56;94.45;99038.66;5115232;28;20213;-80
2022/12/17 13:19:03;;;;;;;36.43;19.60;;;;;;;-2.66;94.42;99042.13;5114685;28;20240;-79
2022/12/17 13:21:30;;;;;;;39.87;20.80;;;;;;;-2.78;94.84;99036.09;5115129;28;20651;-79
2022/12/17 13:23:57;;;;;;;36.40;19.93;;;;;;;-2.81;95.58;99036.13;5115242;28;20206;-79
2022/12/17 13:26:29;;;;;;;42.40;23.37;;;;;;;-2.91;95.42;99044.75;5115288;28;20208;-79
2022/12/17 13:29:02;;;;;;;36.80;20.70;;;;;;;-2.95;95.27;99043.06;5114601;28;20234;-79
2022/12/17 13:31:41;;;;;;;37.10;19.83;;;;;;;-3.08;94.66;99046.50;5114868;28;20251;-79
2022/12/17 13:34:16;;;;;;;37.37;20.80;;;;;;;-3.20;95.73;99051.69;5114824;28;20214;-79
2022/12/17 13:36:51;;;;;;;38.40;21.83;;;;;;;-3.31;96.31;99046.53;5114987;28;20211;-79
2022/12/17 13:39:34;;;;;;;35.53;20.23;;;;;;;-3.46;95.87;99041.38;5114637;28;20230;-79
2022/12/17 13:42:00;;;;;;;34.60;19.83;;;;;;;-3.70;94.79;99040.47;5115308;28;20208;-79
2022/12/17 13:44:32;;;;;;;37.33;19.30;;;;;;;-3.96;94.36;99039.59;5115173;28;20247;-80
2022/12/17 13:46:59;;;;;;;38.20;19.60;;;;;;;-4.15;95.01;99048.16;5114974;28;20244;-80
2022/12/17 13:49:27;;;;;;;35.13;21.60;;;;;;;-4.30;95.60;99051.53;5114545;28;20242;-80
2022/12/17 13:52:01;;;;;;;36.80;19.73;;;;;;;-4.42;96.65;99048.03;5115102;28;20202;-80
2022/12/17 13:54:28;;;;;;;36.47;20.63;;;;;;;-4.47;97.51;99054.91;5115249;28;20255;-80
2022/12/17 13:56:54;;;;;;;36.60;20.40;;;;;;;-4.54;98.74;99060.88;5114569;28;20683;-80
2022/12/17 13:59:24;;;;;;;39.97;20.97;;;;;;;-4.52;99.33;99056.59;5114078;28;20224;-85
2022/12/17 14:01:52;;;;;;;38.57;21.23;;;;;;;-4.62;99.22;99066.03;5114385;28;20613;-79
2022/12/17 14:04:23;;;;;;;37.03;19.73;;;;;;;-4.71;99.06;99076.28;5114066;28;20213;-82
2022/12/17 14:06:50;;;;;;;38.23;21.63;;;;;;;-4.83;98.20;99070.19;5114535;28;20220;-80
2022/12/17 14:09:19;;;;;;;36.80;20.27;;;;;;;-5.02;98.24;99081.25;5113802;28;20230;-81
2022/12/17 14:14:33;;;;;;;37.97;19.70;;;;;;;-5.32;99.83;99088.75;5114189;28;20204;-80
2022/12/17 14:17:00;;;;;;;35.03;19.17;;;;;;;-5.36;100.00;99089.56;5114224;28;20204;-80
2022/12/17 14:19:29;;;;;;;37.83;20.67;;;;;;;-5.38;100.00;99093.84;5113513;28;20630;-79
2022/12/17 14:21:56;;;;;;;43.22;24.75;;;;;;;-5.34;100.00;99095.59;5113779;28;20438;-79
2022/12/17 14:24:27;;;;;;;38.67;19.13;;;;;;;-5.42;100.00;99097.25;5114189;28;20221;-80
2022/12/17 14:26:55;;;;;;;38.00;20.13;;;;;;;-5.47;100.00;99093.75;5114201;28;20214;-80
2022/12/17 14:29:23;;;;;;;37.37;19.63;;;;;;;-5.50;100.00;99106.63;5113646;28;20339;-79
2022/12/17 14:31:55;;;;;;;38.83;20.23;;;;;;;-5.56;100.00;99106.56;5113994;28;20213;-80
2022/12/17 14:34:21;;;;;;;35.70;18.67;;;;;;;-5.60;100.00;99108.25;5113967;28;20213;-79
2022/12/17 14:36:55;;;;;;;36.37;20.37;;;;;;;-5.66;100.00;99107.31;5113978;28;20220;-79
2022/12/17 14:39:25;;;;;;;36.60;19.73;;;;;;;-5.66;100.00;99112.47;5113352;28;20734;-79
2022/12/17 14:44:41;;;;;;;43.93;22.80;;;;;;;-5.72;100.00;99114.97;5113572;28;20287;-80
2022/12/17 14:47:13;;;;;;;41.40;21.50;;;;;;;-5.70;100.00;99115.84;5114158;28;20217;-79
2022/12/17 14:49:53;;;;;;;43.77;23.07;;;;;;;-5.68;100.00;99109.88;5113512;28;20641;-79
2022/12/17 14:52:26;;;;;;;44.27;20.30;;;;;;;-5.69;100.00;99104.72;5114319;28;20212;-80
2022/12/17 14:54:53;;;;;;;44.37;21.47;;;;;;;-5.75;100.00;99107.25;5113512;28;20214;-80
2022/12/17 14:57:21;;;;;;;42.00;21.27;;;;;;;-5.73;100.00;99105.53;5113512;28;20206;-80
2022/12/17 14:59:49;;;;;;;37.20;20.13;;;;;;;-5.78;100.00;99097.78;5113271;28;20226;-80
2022/12/17 15:02:22;;;;;;;39.43;20.60;;;;;;;-5.75;100.00;99096.94;5113383;28;20220;-80
2022/12/17 15:04:50;;;;;;;41.27;22.00;;;;;;;-5.84;100.00;99102.91;5113145;28;20216;-80
2022/12/17 15:07:25;;;;;;;47.30;24.00;;;;;;;-5.81;100.00;99102.06;5113329;28;20217;-79
2022/12/17 15:09:52;;;;;;;43.40;21.70;;;;;;;-5.80;100.00;99103.78;5112981;28;20226;-81
2022/12/17 15:12:19;;;;;;;41.97;22.33;;;;;;;-5.82;100.00;99105.47;5113170;28;20206;-80
2022/12/17 15:14:46;;;;;;;43.63;22.83;;;;;;;-5.81;100.00;99113.22;5112841;28;20210;-80
2022/12/17 15:17:13;;;;;;;47.30;23.37;;;;;;;-5.83;100.00;99117.50;5112971;28;20205;-80
2022/12/17 15:19:39;;;;;;;47.30;23.20;;;;;;;-5.84;100.00;99117.47;5112388;28;20724;-80
2022/12/17 15:22:06;;;;;;;45.63;22.57;;;;;;;-5.82;100.00;99115.75;5112729;28;20206;-80
2022/12/17 15:24:34;;;;;;;53.47;24.93;;;;;;;-5.82;100.00;99123.47;5112931;28;20234;-81
2022/12/17 15:27:00;;;;;;;47.77;24.53;;;;;;;-5.84;100.00;99120.03;5121886;27;20206;-80
2022/12/17 15:29:27;;;;;;;52.03;24.53;;;;;;;-5.85;100.00;99121.78;5112087;28;20233;-80
2022/12/17 15:31:54;;;;;;;43.80;23.03;;;;;;;-5.88;100.00;99116.56;5116117;28;20217;-80
2022/12/17 15:34:20;;;;;;;58.20;25.87;;;;;;;-5.90;100.00;99122.53;5113068;28;20228;-80
2022/12/17 15:36:47;;;;;;;44.60;23.47;;;;;;;-5.92;100.00;99116.53;5106301;28;20199;-80
2022/12/17 15:39:14;;;;;;;47.90;24.13;;;;;;;-5.88;100.00;99126.00;5098401;28;20714;-83
2022/12/17 15:44:26;;;;;;;55.27;26.03;;;;;;;-5.95;100.00;99130.22;5096245;28;20206;-88
2022/12/17 15:46:53;;;;;;;49.33;23.60;;;;;;;-6.05;100.00;99127.53;5108506;28;20206;-91
2022/12/17 15:49:20;;;;;;;54.43;27.80;;;;;;;-6.11;100.00;99124.91;5098219;28;20223;-85
2022/12/17 15:51:46;;;;;;;50.93;27.23;;;;;;;-6.11;100.00;99124.91;5091444;28;20752;-88
2022/12/17 15:54:13;;;;;;;55.00;27.43;;;;;;;-6.07;100.00;99126.63;5092540;28;20218;-88
2022/12/17 15:56:39;;;;;;;50.93;26.13;;;;;;;-6.07;100.00;99129.22;5092214;28;20214;-81
2022/12/17 15:59:07;;;;;;;55.43;26.80;;;;;;;-6.03;100.00;99130.97;5090626;28;20226;-83
2022/12/17 16:01:34;;;;;;;51.53;27.60;;;;;;;-6.05;100.00;99140.41;5090054;28;20306;-83
2022/12/17 16:04:00;;;;;;;56.23;27.50;;;;;;;-6.13;100.00;99139.44;5091051;28;20289;-80
2022/12/17 16:06:27;;;;;;;61.20;29.60;;;;;;;-6.04;100.00;99150.69;5091990;28;20207;-82
2022/12/17 16:08:53;;;;;;;60.40;29.97;;;;;;;-6.11;100.00;99142.91;5091019;28;20237;-82
2022/12/17 16:11:19;;;;;;;51.10;26.03;;;;;;;-6.16;100.00;99152.28;5090869;28;20583;-81
2022/12/17 16:13:46;;;;;;;55.17;26.80;;;;;;;-6.26;100.00;99153.88;5090317;28;20209;-80
2022/12/17 16:16:14;;;;;;;56.13;27.50;;;;;;;-6.34;100.00;99159.75;5091428;28;20210;-81
2022/12/17 16:18:40;;;;;;;65.50;29.07;;;;;;;-6.35;100.00;99163.16;5091299;28;20234;-81
2022/12/17 16:21:08;;;;;;;51.80;26.33;;;;;;;-6.36;100.00;99161.44;5090325;28;20210;-81
2022/12/17 16:23:35;;;;;;;55.30;26.53;;;;;;;-6.40;100.00;99164.81;5090338;28;20261;-80
2022/12/17 16:26:04;;;;;;;56.93;26.93;;;;;;;-6.47;100.00;99158.72;5090147;28;20211;-80
2022/12/17 16:28:31;;;;;;;63.57;28.87;;;;;;;-6.47;100.00;99170.72;5090285;28;20222;-80
2022/12/17 16:30:59;;;;;;;62.30;28.73;;;;;;;-6.47;100.00;99168.16;5089689;28;20226;-81
2022/12/17 16:33:27;;;;;;;58.13;30.13;;;;;;;-6.49;100.00;99164.66;5089576;28;20215;-80
2022/12/17 16:35:54;;;;;;;55.70;29.13;;;;;;;-6.48;100.00;99166.44;5089158;28;20210;-80
2022/12/17 16:38:20;;;;;;;60.23;28.37;;;;;;;-6.47;100.00;99163.84;5099937;28;20244;-81
2022/12/17 16:40:47;;;;;;;51.93;27.40;;;;;;;-6.50;100.00;99163.81;5110554;28;20710;-81
2022/12/17 16:43:14;;;;;;;59.67;28.60;;;;;;;-6.56;100.00;99158.59;5111386;28;20678;-80
2022/12/17 16:45:48;;;;;;;53.70;26.83;;;;;;;-6.61;100.00;99154.22;5111589;28;20251;-81
2022/12/17 16:48:14;;;;;;;61.60;27.83;;;;;;;-6.63;100.00;99163.63;5111467;28;20717;-83
2022/12/17 16:50:42;;;;;;;62.33;28.83;;;;;;;-6.65;100.00;99162.75;5110990;28;20733;-80
2022/12/17 16:53:08;;;;;;;57.30;28.73;;;;;;;-6.66;100.00;99163.59;5111648;28;20206;-81
2022/12/17 16:55:40;;;;;;;60.13;28.20;;;;;;;-6.70;100.00;99161.81;5111487;28;20202;-83
2022/12/17 16:58:06;;;;;;;64.63;29.27;;;;;;;-6.75;100.00;99163.44;5111456;28;20635;-83
2022/12/17 17:00:33;;;;;;;55.37;28.10;;;;;;;-6.77;100.00;99160.00;5111314;28;20197;-82
2022/12/17 17:02:59;;;;;;;62.70;27.50;;;;;;;-6.80;100.00;99162.50;5111714;28;20208;-82
2022/12/17 17:05:26;;;;;;;58.77;28.17;;;;;;;-6.81;100.00;99171.94;5111426;28;20260;-82
2022/12/17 17:07:54;;;;;;;60.33;28.33;;;;;;;-6.83;100.00;99168.47;5111242;28;20560;-82
2022/12/17 17:10:20;;;;;;;59.37;27.83;;;;;;;-6.85;100.00;99169.31;5111202;28;20226;-82
2022/12/17 17:12:47;;;;;;;59.77;28.20;;;;;;;-6.80;100.00;99165.06;5111651;28;20202;-81
2022/12/17 17:15:13;;;;;;;57.63;26.93;;;;;;;-6.83;100.00;99165.03;5111276;28;20206;-80
2022/12/17 17:17:39;;;;;;;64.50;28.70;;;;;;;-6.88;100.00;99170.13;5111559;28;20421;-81
2022/12/17 17:20:06;;;;;;;61.97;29.17;;;;;;;-6.89;100.00;99170.09;5137240;22;20236;-77
2022/12/17 17:22:33;;;;;;;64.00;30.10;;;;;;;-6.95;100.00;99175.97;5131546;28;20210;-78
2022/12/17 17:25:01;;;;;;;59.53;27.33;;;;;;;-6.95;100.00;99175.13;5131491;28;20209;-77
2022/12/17 17:27:27;;;;;;;61.67;28.40;;;;;;;-6.89;100.00;99188.09;5131610;28;20292;-79
2022/12/17 17:29:55;;;;;;;60.50;27.70;;;;;;;-6.93;100.00;99186.28;5131385;28;20328;-79
2022/12/17 17:32:21;;;;;;;58.80;28.87;;;;;;;-6.97;100.00;99192.25;5131343;28;20232;-81
2022/12/17 17:34:48;;;;;;;59.67;27.27;;;;;;;-6.96;100.00;99196.53;5131751;28;20201;-79
2022/12/17 17:37:15;;;;;;;59.57;29.30;;;;;;;-6.92;100.00;99198.28;5131313;28;20201;-80
2022/12/17 17:39:41;;;;;;;58.13;26.47;;;;;;;-6.98;100.00;99198.19;5131385;28;20221;-81
2022/12/17 17:42:09;;;;;;;62.90;29.23;;;;;;;-6.94;100.00;99194.84;5131385;28;20205;-80
2022/12/17 17:44:36;;;;;;;53.47;24.87;;;;;;;-6.97;100.00;99194.81;5132319;27;20205;-87
2022/12/17 17:47:03;;;;;;;60.70;27.50;;;;;;;-6.91;100.00;99202.63;5135138;27;20197;-81
2022/12/17 17:49:30;;;;;;;63.50;29.40;;;;;;;-6.90;100.00;99206.91;5134790;27;20239;-81
2022/12/17 17:51:56;;;;;;;63.10;28.27;;;;;;;-6.96;100.00;99207.66;5134765;27;20229;-80
2022/12/17 17:54:23;;;;;;;59.90;26.47;;;;;;;-7.03;100.00;99210.13;5135167;27;20236;-82
2022/12/17 17:56:49;;;;;;;64.30;28.73;;;;;;;-7.11;100.00;99211.69;5134934;27;20216;-81
2022/12/17 17:59:18;;;;;;;62.77;29.03;;;;;;;-7.13;100.00;99210.81;5134481;27;20221;-79
2022/12/17 18:01:46;;;;;;;53.60;26.93;;;;;;;-7.16;100.00;99203.03;5134674;27;20555;-79
2022/12/17 18:04:15;;;;;;;61.53;26.57;;;;;;;-7.24;100.00;99209.75;5134826;27;20204;-79
2022/12/17 18:06:43;;;;;;;68.53;30.23;;;;;;;-7.25;100.00;99217.41;5134892;27;20201;-81
2022/12/17 18:09:10;;;;;;;65.73;29.43;;;;;;;-7.24;100.00;99214.88;5134527;27;20225;-81
2022/12/17 18:11:38;;;;;;;62.13;29.43;;;;;;;-7.29;100.00;99211.38;5134765;27;20245;-81
2022/12/17 18:14:06;;;;;;;60.17;27.13;;;;;;;-7.28;100.00;99210.53;5134701;27;20212;-82
2022/12/17 18:16:37;;;;;;;60.17;28.13;;;;;;;-7.33;100.00;99204.47;5134567;27;20286;-82
2022/12/17 18:19:06;;;;;;;63.60;27.83;;;;;;;-7.38;100.00;99211.22;5134211;27;20756;-82
2022/12/17 18:21:33;;;;;;;61.13;28.70;;;;;;;-7.41;100.00;99210.31;5134571;27;20213;-81
2022/12/17 18:24:01;;;;;;;60.33;27.40;;;;;;;-7.42;100.00;99217.13;5134526;27;20216;-80
2022/12/17 18:26:30;;;;;;;63.37;29.27;;;;;;;-7.40;100.00;99207.78;5134537;27;20234;-79
2022/12/17 18:29:01;;;;;;;65.50;28.37;;;;;;;-7.40;100.00;99210.34;5133989;27;20596;-79
2022/12/17 18:31:28;;;;;;;56.13;26.03;;;;;;;-7.42;100.00;99212.00;5134202;27;20251;-80
2022/12/17 18:33:58;;;;;;;57.90;28.37;;;;;;;-7.47;100.00;99205.06;5134290;27;20209;-79
2022/12/17 18:36:26;;;;;;;61.83;28.63;;;;;;;-7.52;100.00;99206.66;5134222;27;20212;-80
2022/12/17 18:38:55;;;;;;;59.73;27.50;;;;;;;-7.49;100.00;99209.28;5131736;27;20229;-79
2022/12/17 18:44:06;;;;;;;61.67;28.47;;;;;;;-7.52;100.00;99207.53;5133900;27;20284;-79
2022/12/17 18:46:34;;;;;;;64.80;29.93;;;;;;;-7.49;100.00;99214.41;5132075;27;20213;-79
2022/12/17 18:49:05;;;;;;;57.93;27.63;;;;;;;-7.57;100.00;99214.28;5133656;27;20236;-80
2022/12/17 18:51:33;;;;;;;67.13;28.67;;;;;;;-7.51;100.00;99221.22;5133336;27;20240;-79
2022/12/17 18:54:01;;;;;;;60.30;27.20;;;;;;;-7.42;100.00;99229.97;5132385;27;20212;-79
2022/12/17 18:56:28;;;;;;;65.00;28.83;;;;;;;-7.46;100.00;99238.47;5132671;27;20672;-79
2022/12/17 18:58:56;;;;;;;63.83;27.73;;;;;;;-7.44;100.00;99236.78;5132474;27;20225;-80
2022/12/17 19:01:24;;;;;;;55.27;26.87;;;;;;;-7.47;100.00;99236.72;5132661;27;20202;-80
2022/12/17 19:03:52;;;;;;;59.70;27.83;;;;;;;-7.42;100.00;99242.81;5133637;27;20634;-80
2022/12/17 19:06:21;;;;;;;55.17;27.10;;;;;;;-7.44;100.00;99239.34;5132016;27;20739;-80
2022/12/17 19:08:48;;;;;;;57.97;27.33;;;;;;;-7.47;100.00;99246.97;5132615;27;20727;-79
2022/12/17 19:11:16;;;;;;;60.23;26.53;;;;;;;-7.57;100.00;99234.81;5133273;27;20657;-80
2022/12/17 19:13:43;;;;;;;57.20;27.47;;;;;;;-7.66;100.00;99249.19;5131410;27;20209;-80
2022/12/17 19:16:12;;;;;;;58.07;27.13;;;;;;;-7.62;100.00;99248.38;5133232;27;20210;-79
2022/12/17 19:18:40;;;;;;;49.70;24.27;;;;;;;-7.65;100.00;99240.66;5133352;27;20209;-80
2022/12/17 19:21:08;;;;;;;51.47;24.77;;;;;;;-7.70;100.00;99243.13;5130969;27;20229;-80
2022/12/17 19:23:36;;;;;;;53.10;27.17;;;;;;;-7.68;100.00;99248.25;5133266;27;20202;-80
2022/12/17 19:26:08;;;;;;;55.23;25.33;;;;;;;-7.67;100.00;99257.72;5133097;27;20691;-80
2022/12/17 19:28:34;;;;;;;51.80;24.93;;;;;;;-7.72;100.00;99259.31;5130993;27;20303;-79
2022/12/17 19:31:01;;;;;;;58.13;26.97;;;;;;;-7.77;100.00;99261.78;5132784;27;20205;-79
2022/12/17 19:33:27;;;;;;;57.07;27.20;;;;;;;-7.82;100.00;99268.53;5132688;27;20205;-79
2022/12/17 19:36:06;;;;;;;68.40;27.87;;;;;;;-7.66;100.00;99273.13;5131197;27;20291;-80
2022/12/17 19:38:33;;;;;;;63.83;27.57;;;;;;;-7.75;100.00;99275.53;5133121;27;20296;-79
2022/12/17 19:41:06;;;;;;;53.03;25.90;;;;;;;-7.75;100.00;99279.78;5131766;27;20554;-79
2022/12/17 19:43:33;;;;;;;59.43;26.77;;;;;;;-7.80;100.00;99282.25;5131857;27;20216;-80
2022/12/17 19:46:04;;;;;;;53.33;26.20;;;;;;;-7.80;100.00;99291.63;5132757;27;20209;-79
2022/12/17 19:48:31;;;;;;;53.57;24.97;;;;;;;-7.81;100.00;99289.91;5131043;27;20216;-80
2022/12/17 19:50:58;;;;;;;52.13;25.07;;;;;;;-7.79;100.00;99288.28;5132108;27;20209;-80
2022/12/17 19:53:26;;;;;;;63.23;28.10;;;;;;;-7.86;100.00;99289.81;5132914;27;20291;-80
2022/12/17 19:55:53;;;;;;;58.73;28.20;;;;;;;-7.83;100.00;99297.56;5130803;27;20209;-79
2022/12/17 19:58:24;;;;;;;54.73;25.73;;;;;;;-7.84;100.00;99288.16;5132430;27;20712;-79
2022/12/17 20:00:51;;;;;;;64.63;28.37;;;;;;;-7.77;100.00;99287.44;5132319;27;20227;-79
2022/12/17 20:03:17;;;;;;;58.13;26.87;;;;;;;-7.76;100.00;99278.06;5130098;27;20692;-79
2022/12/17 20:05:45;;;;;;;63.80;28.07;;;;;;;-7.71;100.00;99277.28;5132648;27;20228;-80
2022/12/17 20:08:12;;;;;;;57.10;26.07;;;;;;;-7.76;100.00;99273.81;5132326;27;20209;-80
2022/12/17 20:10:39;;;;;;;65.50;28.33;;;;;;;-7.64;100.00;99279.19;5130111;27;20232;-80
2022/12/17 20:13:05;;;;;;;70.70;28.60;;;;;;;-7.72;100.00;99285.84;5132440;27;20233;-80
2022/12/17 20:15:33;;;;;;;68.40;29.47;;;;;;;-7.80;100.00;99287.38;5131734;27;20216;-80
2022/12/17 20:18:00;;;;;;;60.23;26.60;;;;;;;-7.78;100.00;99290.84;5130487;27;20225;-80
2022/12/17 20:20:26;;;;;;;63.17;28.03;;;;;;;-7.93;100.00;99282.84;5131916;27;20244;-80
2022/12/17 20:22:53;;;;;;;63.10;26.97;;;;;;;-7.97;100.00;99281.03;5131487;27;20228;-80
2022/12/17 20:25:19;;;;;;;70.17;30.03;;;;;;;-8.04;100.00;99286.88;5130875;27;20212;-80
2022/12/17 20:27:46;;;;;;;68.90;27.90;;;;;;;-7.97;100.00;99283.59;5132147;27;20219;-80
2022/12/17 20:30:13;;;;;;;65.00;29.47;;;;;;;-8.03;100.00;99280.91;5130402;27;20398;-80
2022/12/17 20:32:40;;;;;;;66.80;28.53;;;;;;;-7.97;100.00;99270.78;5130982;27;20217;-80
2022/12/17 20:35:08;;;;;;;64.17;28.40;;;;;;;-8.01;100.00;99265.56;5132191;27;20201;-80
2022/12/17 20:37:34;;;;;;;56.77;26.17;;;;;;;-8.06;100.00;99268.03;5130579;27;20205;-80
2022/12/17 20:40:01;;;;;;;61.23;27.73;;;;;;;-8.01;100.00;99276.69;5131057;28;20221;-80
2022/12/17 20:42:27;;;;;;;67.90;29.20;;;;;;;-8.00;100.00;99269.84;5132096;28;20197;-80
2022/12/17 20:44:54;;;;;;;63.37;27.93;;;;;;;-8.00;100.00;99264.72;5129967;28;20212;-81
2022/12/17 20:47:23;;;;;;;62.27;30.27;;;;;;;-8.05;100.00;99264.63;5131773;28;20201;-80
2022/12/17 20:49:51;;;;;;;63.17;27.20;;;;;;;-8.12;100.00;99262.78;5131669;28;20232;-80
2022/12/17 20:52:17;;;;;;;55.83;25.83;;;;;;;-8.15;100.00;99257.56;5129765;28;20603;-80
2022/12/17 20:54:46;;;;;;;67.73;27.13;;;;;;;-8.11;100.00;99271.31;5131792;28;20201;-80
2022/12/17 20:57:15;;;;;;;53.17;25.53;;;;;;;-8.14;100.00;99264.41;5131829;28;20206;-80
2022/12/17 20:59:41;;;;;;;58.83;26.80;;;;;;;-8.10;100.00;99273.91;5129330;28;20232;-80
2022/12/17 21:02:09;;;;;;;68.70;28.83;;;;;;;-8.05;100.00;99274.00;5131892;28;20197;-80
2022/12/17 21:04:38;;;;;;;61.73;25.80;;;;;;;-8.08;100.00;99279.94;5131461;28;20221;-80
2022/12/17 21:07:05;;;;;;;66.13;27.43;;;;;;;-8.09;100.00;99278.22;5130242;28;20216;-81
2022/12/17 21:09:35;;;;;;;56.53;26.43;;;;;;;-8.10;100.00;99280.72;5131414;28;20220;-80
2022/12/17 21:12:01;;;;;;;53.87;25.20;;;;;;;-8.13;100.00;99266.19;5118133;28;20233;-80
2022/12/17 21:14:28;;;;;;;59.53;25.70;;;;;;;-8.15;100.00;99267.81;5110116;28;20210;-80
2022/12/17 21:16:54;;;;;;;59.30;26.13;;;;;;;-8.18;100.00;99265.19;5111429;28;20213;-80
2022/12/17 21:19:22;;;;;;;60.07;26.60;;;;;;;-8.12;100.00;99275.59;5110183;28;20340;-78
2022/12/17 21:21:49;;;;;;;56.33;25.93;;;;;;;-8.11;100.00;99269.63;5114504;28;20696;-79
2022/12/17 21:24:16;;;;;;;62.80;26.77;;;;;;;-8.16;100.00;99266.09;5115050;28;20206;-80
2022/12/17 21:26:44;;;;;;;61.03;28.00;;;;;;;-8.19;100.00;99273.72;5113415;28;20241;-79
2022/12/17 21:29:11;;;;;;;63.50;30.23;;;;;;;-8.21;100.00;99272.84;5114345;28;20230;-79
2022/12/17 21:31:39;;;;;;;69.47;29.13;;;;;;;-8.18;100.00;99274.56;5115056;28;20266;-79
2022/12/17 21:34:09;;;;;;;70.97;29.43;;;;;;;-8.22;100.00;99271.13;5112731;28;20217;-79
2022/12/17 21:36:36;;;;;;;62.27;29.03;;;;;;;-8.27;100.00;99277.00;5114874;28;20213;-81
2022/12/17 21:39:06;;;;;;;70.20;28.60;;;;;;;-8.31;100.00;99276.06;5114340;28;20222;-79
2022/12/17 21:41:38;;;;;;;62.07;28.13;;;;;;;-8.33;100.00;99285.38;5112879;28;20209;-79
2022/12/17 21:44:07;;;;;;;56.00;26.33;;;;;;;-8.30;100.00;99288.03;5114905;28;20228;-79
2022/12/17 21:46:34;;;;;;;68.90;26.70;;;;;;;-8.18;100.00;99284.84;5114167;28;20206;-81
2022/12/17 21:49:02;;;;;;;64.50;27.90;;;;;;;-8.28;100.00;99286.38;5112760;28;20226;-79
2022/12/17 21:51:30;;;;;;;60.83;26.70;;;;;;;-8.32;100.00;99287.13;5114275;28;20212;-79
2022/12/17 21:53:58;;;;;;;60.07;27.47;;;;;;;-8.28;100.00;99283.81;5113357;28;20206;-79
2022/12/17 21:56:26;;;;;;;64.73;28.67;;;;;;;-8.28;100.00;99281.22;5113580;28;20210;-79
2022/12/17 21:58:58;;;;;;;65.87;29.90;;;;;;;-8.32;100.00;99279.44;5114175;28;20229;-78
2022/12/17 22:01:26;;;;;;;52.90;25.47;;;;;;;-8.36;100.00;99287.91;5112856;28;20205;-79
2022/12/17 22:03:54;;;;;;;57.83;24.47;;;;;;;-8.38;100.00;99298.94;5113755;28;20703;-78
2022/12/17 22:06:23;;;;;;;66.47;27.93;;;;;;;-8.36;100.00;99303.28;5114256;28;20212;-79
2022/12/17 22:08:49;;;;;;;56.30;25.83;;;;;;;-8.39;100.00;99298.06;5111841;28;20229;-79
2022/12/17 22:11:22;;;;;;;62.33;28.33;;;;;;;-8.41;100.00;99304.88;5114368;28;20209;-79
2022/12/17 22:14:05;;;;;;;66.77;28.27;;;;;;;-8.43;100.00;99298.84;5114174;28;20245;-80
2022/12/17 22:16:37;;;;;;;67.80;28.57;;;;;;;-8.39;100.00;99299.78;5112016;28;20202;-79
2022/12/17 22:19:04;;;;;;;69.43;27.57;;;;;;;-8.37;100.00;99300.66;5113847;28;20233;-79
2022/12/17 22:21:33;;;;;;;57.27;26.07;;;;;;;-8.44;100.00;99299.66;5113019;28;20208;-79
2022/12/17 22:24:00;;;;;;;47.30;22.87;;;;;;;-8.45;100.00;99297.06;5112625;28;20198;-79
2022/12/17 22:26:27;;;;;;;59.37;26.13;;;;;;;-8.45;100.00;99303.06;5114055;28;20202;-79
2022/12/17 22:28:53;;;;;;;55.07;24.93;;;;;;;-8.46;100.00;99291.06;5112154;28;20234;-79
2022/12/17 22:34:10;;;;;;;65.07;28.93;;;;;;;-8.50;100.00;99294.38;5082178;28;20199;-79
2022/12/17 22:36:36;;;;;;;60.27;26.83;;;;;;;-8.46;100.00;99301.31;5113769;28;20214;-79
2022/12/17 22:39:06;;;;;;;63.73;27.73;;;;;;;-8.43;100.00;99303.97;5113692;28;20222;-81
2022/12/17 22:44:16;;;;;;;61.23;27.60;;;;;;;-8.43;100.00;99293.72;5113862;28;20271;-79
2022/12/17 22:46:42;;;;;;;58.97;26.30;;;;;;;-8.41;100.00;99292.03;5113714;28;20212;-79
2022/12/17 22:49:10;;;;;;;56.17;24.70;;;;;;;-8.44;100.00;99299.66;5113242;28;20229;-79
2022/12/17 22:51:37;;;;;;;63.27;28.10;;;;;;;-8.53;100.00;99309.69;5113380;28;20213;-79
2022/12/17 22:54:06;;;;;;;57.87;26.47;;;;;;;-8.51;100.00;99308.03;5113276;28;20608;-79
2022/12/17 22:56:33;;;;;;;57.13;27.27;;;;;;;-8.43;100.00;99291.16;5113406;28;20210;-79
2022/12/17 22:59:00;;;;;;;53.47;25.93;;;;;;;-8.49;100.00;99296.13;5112901;28;20230;-78
2022/12/17 23:01:27;;;;;;;55.33;26.10;;;;;;;-8.56;100.00;99285.69;5113228;28;20205;-79
2022/12/17 23:03:54;;;;;;;64.53;27.87;;;;;;;-8.53;100.00;99290.88;5113219;28;20202;-79
2022/12/17 23:06:22;;;;;;;56.67;26.40;;;;;;;-8.53;100.00;99294.31;5113112;28;20209;-78
2022/12/17 23:08:48;;;;;;;59.20;25.97;;;;;;;-8.56;100.00;99289.13;5112742;28;20596;-79
2022/12/17 23:11:21;;;;;;;62.30;26.40;;;;;;;-8.63;100.00;99292.38;5113264;28;20206;-79
2022/12/17 23:13:48;;;;;;;63.67;28.13;;;;;;;-8.65;100.00;99288.91;5113066;28;20241;-79
2022/12/17 23:16:15;;;;;;;58.33;27.63;;;;;;;-8.64;100.00;99295.75;5112966;28;20213;-79
2022/12/17 23:18:42;;;;;;;56.20;26.30;;;;;;;-8.62;100.00;99294.09;5112597;28;20206;-80
2022/12/17 23:21:11;;;;;;;68.83;28.17;;;;;;;-8.52;100.00;99296.06;5112623;28;20301;-79
2022/12/17 23:23:39;;;;;;;61.63;27.10;;;;;;;-8.57;100.00;99309.59;5113025;28;20221;-79
2022/12/17 23:26:07;;;;;;;57.10;27.57;;;;;;;-8.63;100.00;99302.63;5112859;28;20228;-79
2022/12/17 23:28:34;;;;;;;61.00;28.43;;;;;;;-8.68;100.00;99311.03;5111526;28;20217;-81
2022/12/17 23:31:06;;;;;;;62.60;27.27;;;;;;;-8.60;100.00;99302.69;5110708;28;20293;-78
2022/12/17 23:33:33;;;;;;;53.40;24.80;;;;;;;-8.65;100.00;99304.28;5111573;28;20558;-78
2022/12/17 23:36:02;;;;;;;59.73;27.30;;;;;;;-8.65;100.00;99299.16;5112484;28;20216;-78
2022/12/17 23:38:29;;;;;;;56.90;25.67;;;;;;;-8.71;100.00;99303.25;5112382;28;20210;-78
2022/12/17 23:41:02;;;;;;;56.20;25.57;;;;;;;-8.70;100.00;99303.31;5112414;28;20232;-78
2022/12/17 23:43:29;;;;;;;64.50;27.90;;;;;;;-8.67;100.00;99305.94;5111972;28;20210;-80
2022/12/17 23:45:55;;;;;;;50.90;23.73;;;;;;;-8.74;100.00;99298.06;5112296;28;20223;-78
2022/12/17 23:48:22;;;;;;;53.00;24.67;;;;;;;-8.75;100.00;99302.31;5112565;28;20255;-81
2022/12/17 23:50:48;;;;;;;55.73;24.73;;;;;;;-8.85;100.00;99297.81;5111945;28;20667;-78
2022/12/17 23:53:15;;;;;;;61.93;27.37;;;;;;;-8.86;100.00;99297.78;5112280;28;20618;-78
2022/12/17 23:55:41;;;;;;;61.03;26.93;;;;;;;-8.88;100.00;99294.31;5112368;28;20216;-81
2022/12/17 23:58:09;;;;;;;65.63;27.20;;;;;;;-8.81;100.00;99296.19;5112302;28;20202;-78
